Pagina principale
METAR-TAF:

METAR-TAF

Aeroporti :

Aeroporto di Trapani-Birgi

Trapani, Italia

latitudine: 37-55N, longitudine: 012-30E, altezza: 7 m

Osservazione

Il bollettino è stato emesso 44 minuti fa, alle 04:55 UTC
Vento 7 kt da est/nord-est
Temperature 28°C
Umidità 66%
Pressione 1015 hPa
Visibilità 10 km o più
Poco nuvoloso ad un'altezza di 1500 ft
Nubi sparse ad un'altezza di 2500 ft
pioggia debole

METAR: LICT 030455Z 06007KT 9999 -RA FEW015 SCT025 28/21 Q1015 RMK SCT VIS MIN 9999 WIND THR13 08008KT BLU

Ora: 07:39 (05:39 UTC)

Previsione

Il bollettino è stato emesso 39 minuti fa, alle 05:00 UTC
Previsione valida dal 03 alle 06 UTC al 03 alle 15 UTC
Vento 5 kt da sud/sud-est
Visibilità 10 km o più
nessuna nube inferiore a 1500 m e nessun cumulonembo

TAF: LICT 030500Z 0306/0315 15005KT CAVOK

Osservazioni e previsioni meteorologiche di più di 4000 aeroporti (messaggi METAR e TAF).

Le stazioni disponibili sono rappresentate dai dischi gialli e rossi sulla carta.

Puntare il mouse per vedere il nome della stazione.

Clicca sopra per visualizzare le osservazioni e previsioni meteorologiche.

Per cambiare la mappa : fare clic sui pulsanti verdi con una croce nera per ingrandire, il pulsante verde con un trattino per diminuire, o sulla freccia verde per le mappe adiacenti.


METAR-TAF: